createdAt,value
2023-02-04T00:00:20.969Z,0.65
2023-02-04T00:03:25.534Z,0.88
2023-02-04T00:06:28.897Z,0.65
2023-02-04T00:09:32.245Z,0.60
2023-02-04T00:12:35.717Z,0.75
2023-02-04T00:15:39.917Z,0.80
2023-02-04T00:18:45.421Z,0.60
2023-02-04T00:21:48.772Z,1.00
2023-02-04T00:24:52.064Z,0.60
2023-02-04T00:27:55.508Z,0.70
2023-02-04T00:30:58.837Z,0.90
2023-02-04T00:34:03.467Z,0.80
2023-02-04T00:37:06.875Z,0.50
2023-02-04T00:40:11.019Z,0.60
2023-02-04T00:43:16.326Z,0.68
2023-02-04T00:46:19.650Z,0.85
2023-02-04T00:49:24.432Z,0.70
2023-02-04T00:52:29.365Z,0.80
2023-02-04T00:55:32.661Z,0.70
2023-02-04T00:58:35.983Z,0.93
2023-02-04T01:01:39.429Z,0.93
2023-02-04T01:04:44.072Z,0.90
2023-02-04T01:07:48.010Z,0.85
2023-02-04T01:10:51.626Z,0.57
2023-02-04T01:13:55.580Z,0.60
2023-02-04T01:16:59.230Z,0.70
2023-02-04T01:20:07.278Z,0.55
2023-02-04T01:23:10.504Z,0.60
2023-02-04T01:26:13.935Z,0.60
2023-02-04T01:29:17.935Z,0.65
2023-02-04T01:32:21.827Z,0.77
2023-02-04T01:35:28.364Z,0.70
2023-02-04T01:38:31.740Z,1.02
2023-02-04T01:41:35.091Z,0.88
2023-02-04T01:44:39.385Z,0.75
2023-02-04T01:47:45.804Z,0.80
2023-02-04T01:50:50.903Z,0.82
2023-02-04T01:53:57.887Z,0.90
2023-02-04T01:57:01.186Z,0.82
2023-02-04T02:00:08.357Z,0.75
2023-02-04T02:03:16.007Z,0.57
2023-02-04T02:06:20.669Z,0.65
2023-02-04T02:09:24.894Z,0.90
2023-02-04T02:12:28.343Z,0.90
2023-02-04T02:15:31.629Z,0.82
2023-02-04T02:18:35.057Z,0.80
2023-02-04T02:21:42.370Z,0.63
2023-02-04T02:24:49.044Z,0.70
2023-02-04T02:27:52.527Z,0.70
2023-02-04T02:30:56.106Z,0.73
2023-02-04T02:34:03.273Z,0.82
2023-02-04T02:37:08.839Z,1.10
2023-02-04T02:40:14.614Z,0.63
2023-02-04T02:43:18.958Z,1.00
2023-02-04T02:46:22.356Z,0.82
2023-02-04T02:49:25.786Z,0.73
2023-02-04T02:52:29.189Z,0.60
2023-02-04T02:55:34.092Z,0.50
2023-02-04T02:58:39.539Z,0.60
2023-02-04T03:01:43.476Z,0.70
2023-02-04T03:04:49.585Z,0.95
2023-02-04T03:07:54.504Z,0.60
2023-02-04T03:11:00.538Z,1.15
2023-02-04T03:14:05.629Z,0.73
2023-02-04T03:17:11.172Z,0.80
2023-02-04T03:20:15.245Z,1.10
2023-02-04T03:23:18.658Z,0.70
2023-02-04T03:26:24.023Z,0.80
2023-02-04T03:29:29.655Z,0.82
2023-02-04T03:32:33.158Z,0.57
2023-02-04T03:35:36.526Z,0.65
2023-02-04T03:38:39.843Z,0.73
2023-02-04T03:41:44.476Z,0.90
2023-02-04T03:44:47.742Z,0.80
2023-02-04T03:47:51.002Z,0.60
2023-02-04T03:50:57.582Z,0.77
2023-02-04T03:54:01.119Z,0.63
2023-02-04T03:57:05.880Z,0.82
2023-02-04T04:00:09.905Z,0.70
2023-02-04T04:03:16.266Z,0.63
2023-02-04T04:06:19.573Z,0.55
2023-02-04T04:09:22.884Z,0.75
2023-02-04T04:12:27.742Z,0.52
2023-02-04T04:15:33.994Z,0.70
2023-02-04T04:18:37.539Z,0.60
2023-02-04T04:21:41.572Z,0.65
2023-02-04T04:24:45.706Z,0.70
2023-02-04T04:27:50.618Z,0.55
2023-02-04T04:30:54.351Z,0.80
2023-02-04T04:33:58.654Z,0.60
2023-02-04T04:37:01.965Z,0.70
2023-02-04T04:40:05.536Z,0.90
2023-02-04T04:43:10.194Z,0.85
2023-02-04T04:46:13.545Z,0.80
2023-02-04T04:49:17.311Z,0.50
2023-02-04T04:52:21.400Z,0.80
2023-02-04T04:55:24.744Z,0.80
2023-02-04T04:58:30.002Z,0.70
2023-02-04T05:01:34.314Z,0.82
2023-02-04T05:04:37.684Z,0.80
2023-02-04T05:07:41.716Z,0.75
2023-02-04T05:10:46.222Z,1.00
2023-02-04T05:13:50.940Z,0.70
2023-02-04T05:16:54.238Z,0.68
2023-02-04T05:19:57.548Z,0.65
2023-02-04T05:23:03.114Z,0.95
2023-02-04T05:26:07.450Z,0.90
2023-02-04T05:29:12.421Z,0.77
2023-02-04T05:32:15.794Z,0.63
2023-02-04T05:35:19.492Z,0.70
2023-02-04T05:38:23.099Z,0.75
2023-02-04T05:41:26.649Z,0.60
2023-02-04T05:44:31.904Z,0.52
2023-02-04T05:47:36.328Z,0.82
2023-02-04T05:50:42.160Z,0.60
2023-02-04T05:53:45.556Z,0.90
2023-02-04T05:56:51.819Z,1.02
2023-02-04T05:59:56.622Z,0.60
2023-02-04T06:03:00.380Z,0.70
2023-02-04T06:06:04.167Z,0.60
2023-02-04T06:09:07.661Z,0.73
2023-02-04T06:12:11.794Z,0.80
2023-02-04T06:15:16.708Z,0.90
2023-02-04T06:18:20.073Z,0.80
2023-02-04T06:21:23.357Z,0.80
2023-02-04T06:24:26.660Z,0.98
2023-02-04T06:27:30.240Z,0.90
2023-02-04T06:30:35.417Z,0.88
2023-02-04T06:33:39.400Z,0.90
2023-02-04T06:36:42.988Z,0.68
2023-02-04T06:39:46.423Z,0.90
2023-02-04T06:42:51.211Z,0.70
2023-02-04T06:45:56.672Z,0.75
2023-02-04T06:49:02.821Z,0.95
2023-02-04T06:52:07.259Z,0.70
2023-02-04T06:55:11.376Z,0.82
2023-02-04T06:58:15.209Z,0.70
2023-02-04T07:01:19.967Z,0.90
2023-02-04T07:04:23.726Z,0.75
2023-02-04T07:07:27.651Z,0.65
2023-02-04T07:10:32.876Z,0.63
2023-02-04T07:13:36.537Z,1.00
2023-02-04T07:16:41.181Z,0.80
2023-02-04T07:19:44.463Z,0.90
2023-02-04T07:22:47.774Z,0.65
2023-02-04T07:25:53.241Z,0.98
2023-02-04T07:28:58.863Z,0.77
2023-02-04T07:32:03.675Z,0.73
2023-02-04T07:35:07.423Z,0.80
2023-02-04T07:38:10.777Z,0.77
2023-02-04T07:41:14.922Z,0.63
2023-02-04T07:44:18.334Z,0.70
2023-02-04T07:47:24.213Z,0.63
2023-02-04T07:50:27.676Z,0.77
2023-02-04T07:53:30.959Z,1.05
2023-02-04T07:56:34.392Z,0.93
2023-02-04T07:59:37.599Z,1.98
2023-02-04T08:02:42.729Z,2.80
2023-02-04T08:05:46.236Z,3.47
2023-02-04T08:08:50.408Z,2.88
2023-02-04T08:11:54.323Z,2.92
2023-02-04T08:14:57.736Z,2.25
2023-02-04T08:18:02.396Z,2.65
2023-02-04T08:21:06.316Z,2.63
2023-02-04T08:24:09.705Z,1.95
2023-02-04T08:27:13.021Z,1.35
2023-02-04T08:30:16.678Z,1.02
2023-02-04T08:33:22.447Z,1.00
2023-02-04T08:36:26.168Z,1.10
2023-02-04T08:39:29.589Z,0.82
2023-02-04T08:42:33.031Z,1.20
2023-02-04T08:45:36.463Z,1.10
2023-02-04T08:48:41.182Z,0.88
2023-02-04T08:51:45.584Z,1.35
2023-02-04T08:54:49.960Z,1.30
2023-02-04T08:57:53.363Z,1.27
2023-02-04T09:01:02.763Z,1.25
2023-02-04T09:04:09.782Z,1.30
2023-02-04T09:07:13.184Z,1.20
2023-02-04T09:10:16.879Z,1.00
2023-02-04T09:13:20.195Z,1.05
2023-02-04T09:16:24.497Z,1.20
2023-02-04T09:19:29.493Z,1.33
2023-02-04T09:22:32.825Z,1.30
2023-02-04T09:25:37.321Z,1.13
2023-02-04T09:28:41.005Z,1.40
2023-02-04T09:31:44.421Z,1.13
2023-02-04T09:34:49.367Z,1.10
2023-02-04T09:37:53.469Z,0.77
2023-02-04T09:41:00.227Z,1.23
2023-02-04T09:44:03.811Z,1.27
2023-02-04T09:47:07.240Z,1.15
2023-02-04T09:50:15.941Z,1.17
2023-02-04T09:53:21.275Z,1.10
2023-02-04T09:56:25.610Z,0.82
2023-02-04T09:59:29.834Z,0.82
2023-02-04T10:02:33.214Z,1.30
2023-02-04T10:05:37.970Z,1.30
2023-02-04T10:08:41.790Z,1.40
2023-02-04T10:11:46.615Z,0.80
2023-02-04T10:14:50.600Z,0.98
2023-02-04T10:17:55.670Z,0.80
2023-02-04T10:21:08.234Z,0.63
2023-02-04T10:24:15.086Z,0.90
2023-02-04T10:27:18.622Z,1.13
2023-02-04T10:30:23.886Z,1.17
2023-02-04T10:33:27.437Z,1.63
2023-02-04T10:36:32.263Z,1.02
2023-02-04T10:39:43.987Z,1.38
2023-02-04T10:42:51.719Z,0.70
2023-02-04T10:45:57.736Z,0.80
2023-02-04T10:49:01.412Z,0.82
2023-02-04T10:52:15.315Z,0.60
2023-02-04T10:55:19.848Z,0.77
2023-02-04T10:58:26.365Z,0.80
2023-02-04T11:01:31.145Z,0.98
2023-02-04T11:04:34.517Z,0.70
2023-02-04T11:07:39.247Z,1.10
2023-02-04T11:10:42.593Z,0.80
2023-02-04T11:13:47.022Z,0.80
2023-02-04T11:16:50.654Z,0.75
2023-02-04T11:19:54.052Z,0.80
2023-02-04T11:22:58.739Z,0.93
2023-02-04T11:26:09.896Z,0.80
2023-02-04T11:29:27.502Z,0.60
2023-02-04T11:32:32.364Z,0.88
2023-02-04T11:35:35.783Z,0.80
2023-02-04T11:38:43.863Z,0.63
2023-02-04T11:41:47.621Z,0.90
2023-02-04T11:44:54.244Z,1.02
2023-02-04T11:47:59.500Z,0.80
2023-02-04T11:51:04.620Z,0.70
2023-02-04T11:54:10.472Z,0.68
2023-02-04T11:57:13.859Z,0.50
2023-02-04T12:00:18.552Z,0.70
2023-02-04T12:03:26.541Z,0.70
2023-02-04T12:06:30.902Z,0.70
2023-02-04T12:09:35.588Z,0.75
2023-02-04T12:12:43.579Z,0.77
2023-02-04T12:15:54.173Z,0.80
2023-02-04T12:18:57.522Z,0.80
2023-02-04T12:22:00.952Z,1.05
2023-02-04T12:25:05.830Z,0.80
2023-02-04T12:28:09.259Z,0.95
2023-02-04T12:31:12.936Z,0.68
2023-02-04T12:34:17.261Z,0.52
2023-02-04T12:37:20.859Z,0.57
2023-02-04T12:40:25.645Z,0.70
2023-02-04T12:43:28.974Z,0.70
2023-02-04T12:46:32.330Z,0.68
2023-02-04T12:49:35.771Z,0.65
2023-02-04T12:52:39.422Z,0.70
2023-02-04T12:55:44.298Z,0.82
2023-02-04T12:58:47.664Z,0.60
2023-02-04T13:01:51.253Z,0.50
2023-02-04T13:04:55.269Z,1.58
2023-02-04T13:07:58.786Z,0.77
2023-02-04T13:11:03.555Z,0.60
2023-02-04T13:14:06.854Z,0.50
2023-02-04T13:17:10.826Z,0.77
2023-02-04T13:20:15.220Z,0.45
2023-02-04T13:23:18.610Z,0.68
2023-02-04T13:26:23.472Z,0.65
2023-02-04T13:29:26.867Z,0.65
2023-02-04T13:32:30.373Z,0.60
2023-02-04T13:35:34.030Z,0.50
2023-02-04T13:38:41.348Z,0.50
2023-02-04T13:41:46.974Z,0.77
2023-02-04T13:44:50.288Z,0.50
2023-02-04T13:47:53.625Z,0.60
2023-02-04T13:50:58.667Z,0.73
2023-02-04T13:54:02.048Z,0.73
2023-02-04T13:57:06.767Z,0.45
2023-02-04T14:00:10.955Z,0.80
2023-02-04T14:03:17.464Z,0.70
2023-02-04T14:06:33.195Z,0.50
2023-02-04T14:09:36.683Z,0.70
2023-02-04T14:12:42.652Z,0.70
2023-02-04T14:15:46.073Z,0.77
2023-02-04T14:18:49.369Z,0.60
2023-02-04T14:21:54.148Z,1.00
2023-02-04T14:24:57.711Z,1.48
2023-02-04T14:28:02.750Z,0.90
2023-02-04T14:31:06.383Z,1.10
2023-02-04T14:34:09.816Z,0.63
2023-02-04T14:37:13.183Z,0.80
2023-02-04T14:40:17.494Z,0.90
2023-02-04T14:43:26.564Z,0.90
2023-02-04T14:46:30.020Z,1.85
2023-02-04T14:49:36.799Z,2.05
2023-02-04T14:52:40.204Z,2.65
2023-02-04T14:55:43.552Z,0.88
2023-02-04T14:58:52.856Z,0.73
2023-02-04T15:01:57.490Z,0.70
2023-02-04T15:05:01.711Z,0.57
2023-02-04T15:08:05.723Z,1.15
2023-02-04T15:11:09.211Z,1.75
2023-02-04T15:14:46.140Z,1.05
2023-02-04T15:17:52.412Z,0.63
2023-02-04T15:20:55.892Z,0.45
2023-02-04T15:23:59.247Z,0.80
2023-02-04T15:27:03.273Z,0.60
2023-02-04T15:30:06.949Z,0.57
2023-02-04T15:33:16.554Z,0.70
2023-02-04T15:36:22.605Z,0.60
2023-02-04T15:39:29.062Z,0.70
2023-02-04T15:42:33.179Z,0.98
2023-02-04T15:45:41.236Z,1.75
2023-02-04T15:48:48.546Z,2.05
2023-02-04T15:51:52.860Z,1.58
2023-02-04T15:54:57.474Z,1.17
2023-02-04T15:58:08.314Z,1.40
2023-02-04T16:01:14.705Z,1.10
2023-02-04T16:04:20.981Z,1.10
2023-02-04T16:07:25.472Z,1.17
2023-02-04T16:10:30.232Z,1.17
2023-02-04T16:13:37.122Z,10.52
2023-02-04T16:16:42.341Z,13.65
2023-02-04T16:19:48.861Z,5.85
2023-02-04T16:22:53.102Z,7.72
2023-02-04T16:26:04.308Z,4.78
2023-02-04T16:29:08.584Z,4.72
2023-02-04T16:32:13.868Z,2.50
2023-02-04T16:35:24.979Z,4.30
2023-02-04T16:38:30.151Z,2.50
2023-02-04T16:41:34.093Z,2.13
2023-02-04T16:44:39.832Z,2.50
2023-02-04T16:47:43.460Z,1.52
2023-02-04T16:50:49.153Z,1.52
2023-02-04T16:53:54.582Z,1.80
2023-02-04T16:57:00.245Z,1.50
2023-02-04T17:00:03.927Z,2.05
2023-02-04T17:03:07.641Z,1.77
2023-02-04T17:06:16.259Z,1.92
2023-02-04T17:09:20.877Z,1.75
2023-02-04T17:12:25.177Z,1.20
2023-02-04T17:15:28.610Z,0.80
2023-02-04T17:18:33.084Z,1.17
2023-02-04T17:21:41.591Z,2.63
2023-02-04T17:24:45.047Z,2.30
2023-02-04T17:27:50.633Z,2.50
2023-02-04T17:30:56.107Z,1.98
2023-02-04T17:34:01.160Z,1.50
2023-02-04T17:37:07.354Z,1.75
2023-02-04T17:40:13.505Z,2.58
2023-02-04T17:43:16.913Z,3.63
2023-02-04T17:46:20.455Z,2.97
2023-02-04T17:49:24.032Z,3.15
2023-02-04T17:52:30.818Z,4.15
2023-02-04T17:55:38.037Z,3.70
2023-02-04T17:58:46.808Z,3.20
2023-02-04T18:01:51.253Z,2.67
2023-02-04T18:04:55.844Z,3.20
2023-02-04T18:08:05.845Z,3.33
2023-02-04T18:11:15.200Z,3.22
2023-02-04T18:14:23.473Z,3.58
2023-02-04T18:17:28.154Z,7.90
2023-02-04T18:20:32.641Z,23.05
2023-02-04T18:23:37.471Z,7.95
2023-02-04T18:26:49.152Z,17.05
2023-02-04T18:29:59.021Z,18.00
2023-02-04T18:33:02.514Z,5.80
2023-02-04T18:36:07.058Z,3.67
2023-02-04T18:39:20.078Z,4.47
2023-02-04T18:47:59.924Z,4.00
2023-02-04T18:51:03.674Z,4.68
2023-02-04T18:54:31.527Z,4.30
2023-02-04T18:58:09.614Z,3.10
2023-02-04T19:01:49.583Z,4.22
2023-02-04T19:05:06.125Z,3.47
2023-02-04T19:09:17.139Z,2.05
2023-02-04T19:13:02.349Z,1.88
2023-02-04T19:16:47.000Z,1.85
2023-02-04T19:19:56.987Z,1.75
2023-02-04T19:23:00.542Z,2.30
2023-02-04T19:26:04.044Z,1.38
2023-02-04T19:29:22.487Z,1.70
2023-02-04T19:32:28.510Z,2.05
2023-02-04T19:35:44.037Z,2.72
2023-02-04T19:38:52.053Z,2.63
2023-02-04T19:41:56.382Z,2.85
2023-02-04T19:45:00.449Z,3.05
2023-02-04T19:48:15.160Z,3.42
2023-02-04T19:51:26.396Z,2.88
2023-02-04T19:54:37.312Z,1.60
2023-02-04T19:57:44.162Z,1.88
2023-02-04T20:00:52.037Z,1.52
2023-02-04T20:03:57.125Z,1.42
2023-02-04T20:07:00.529Z,1.33
2023-02-04T20:10:15.263Z,1.45
2023-02-04T20:13:20.499Z,1.35
2023-02-04T20:16:33.438Z,1.67
2023-02-04T20:19:41.057Z,2.47
2023-02-04T20:22:46.641Z,3.03
2023-02-04T20:25:50.720Z,3.83
2023-02-04T20:28:54.407Z,3.30
2023-02-04T20:32:01.372Z,2.75
2023-02-04T20:35:34.349Z,2.45
2023-02-04T20:38:45.576Z,2.45
2023-02-04T20:42:36.509Z,1.67
2023-02-04T20:45:57.221Z,2.17
2023-02-04T20:49:36.418Z,1.27
2023-02-04T20:53:07.056Z,1.80
2023-02-04T20:56:41.147Z,1.63
2023-02-04T21:03:21.798Z,1.65
2023-02-04T21:06:43.229Z,1.83
2023-02-04T21:13:36.397Z,1.25
2023-02-04T21:17:17.055Z,1.55
2023-02-04T21:20:36.358Z,1.75
2023-02-04T21:23:43.619Z,1.70
2023-02-04T21:27:16.243Z,1.60
2023-02-04T21:30:29.446Z,1.40
2023-02-04T21:33:37.592Z,1.20
2023-02-04T21:36:49.210Z,1.77
2023-02-04T21:40:09.766Z,1.63
2023-02-04T21:43:32.043Z,2.13
2023-02-04T21:49:59.513Z,1.85
2023-02-04T21:53:08.896Z,1.95
2023-02-04T21:56:17.229Z,2.13
2023-02-04T21:59:25.373Z,1.63
2023-02-04T22:02:36.171Z,2.30
2023-02-04T22:05:46.811Z,1.38
2023-02-04T22:08:50.644Z,1.55
2023-02-04T22:11:54.094Z,1.73
2023-02-04T22:14:59.110Z,1.95
2023-02-04T22:18:02.703Z,1.60
2023-02-04T22:21:09.608Z,1.27
2023-02-04T22:24:13.116Z,1.40
2023-02-04T22:27:21.560Z,1.30
2023-02-04T22:30:26.601Z,1.48
2023-02-04T22:33:30.316Z,1.27
2023-02-04T22:36:36.743Z,1.52
2023-02-04T22:39:40.390Z,1.33
2023-02-04T22:42:45.396Z,1.05
2023-02-04T22:45:50.341Z,1.08
2023-02-04T22:48:56.866Z,1.48
2023-02-04T22:52:00.670Z,1.13
2023-02-04T22:55:04.169Z,1.45
2023-02-04T22:58:07.624Z,1.38
2023-02-04T23:01:12.391Z,1.50
2023-02-04T23:04:15.930Z,1.50
2023-02-04T23:07:19.543Z,1.55
2023-02-04T23:10:23.081Z,1.02
2023-02-04T23:13:26.573Z,1.55
2023-02-04T23:16:31.584Z,1.50
2023-02-04T23:19:35.125Z,1.17
2023-02-04T23:22:38.628Z,1.70
2023-02-04T23:25:42.202Z,1.83
2023-02-04T23:28:45.782Z,1.40
2023-02-04T23:31:50.616Z,1.70
2023-02-04T23:34:54.178Z,1.27
2023-02-04T23:37:57.584Z,1.23
2023-02-04T23:41:00.968Z,1.13
2023-02-04T23:44:04.344Z,1.50
2023-02-04T23:47:09.288Z,0.98
2023-02-04T23:50:12.695Z,1.20
2023-02-04T23:53:16.095Z,1.27
2023-02-04T23:56:19.507Z,1.05
2023-02-04T23:59:22.833Z,1.15
